Time;durP1;ratioP1;P1;durP2;ratioP2;P2;SDS_P1;SDS_P2;PMS_P1;PMS_P2;Temp;Humidity;BMP_temperature;BMP_pressure;BME280_temperature;BME280_humidity;BME280_pressure;Samples;Min_cycle;Max_cycle;Signal;HPM_P1;HPM_P2
2023/07/28 00:01:31;;;;;;;4.70;3.42;;;13.20;99.90;;;;;;4976703;28;20186;-84
2023/07/28 00:03:57;;;;;;;5.85;3.17;;;13.20;99.90;;;;;;4955917;29;20191;-85
2023/07/28 00:06:23;;;;;;;5.15;3.45;;;13.20;99.90;;;;;;4974666;28;20186;-85
2023/07/28 00:08:49;;;;;;;4.50;3.15;;;13.20;99.90;;;;;;4976249;28;20183;-85
2023/07/28 00:11:16;;;;;;;5.80;3.10;;;13.20;99.90;;;;;;4957998;28;20195;-84
2023/07/28 00:13:42;;;;;;;3.85;2.65;;;12.90;99.90;;;;;;4955726;29;20672;-85
2023/07/28 00:16:09;;;;;;;4.40;3.35;;;13.10;99.90;;;;;;4973851;28;20186;-85
2023/07/28 00:18:35;;;;;;;4.40;3.28;;;13.10;99.90;;;;;;4976565;28;20198;-85
2023/07/28 00:21:01;;;;;;;6.80;2.88;;;13.10;99.90;;;;;;4974552;28;20325;-84
2023/07/28 00:23:28;;;;;;;4.25;3.15;;;13.10;99.90;;;;;;4955278;29;20179;-84
2023/07/28 00:25:54;;;;;;;4.43;3.17;;;13.00;99.90;;;;;;4971236;28;20182;-85
2023/07/28 00:28:19;;;;;;;7.60;3.70;;;13.00;99.90;;;;;;4975914;28;20187;-84
2023/07/28 00:30:49;;;;;;;4.35;3.20;;;13.00;99.90;;;;;;4955205;29;20206;-84
2023/07/28 00:33:15;;;;;;;4.18;2.97;;;13.00;99.90;;;;;;4974660;28;20261;-85
2023/07/28 00:35:41;;;;;;;7.05;3.25;;;12.90;99.90;;;;;;4955051;29;20176;-85
2023/07/28 00:38:07;;;;;;;8.82;3.28;;;12.90;99.90;;;;;;4972562;28;20206;-85
2023/07/28 00:40:32;;;;;;;4.15;3.05;;;12.90;99.90;;;;;;4975120;28;20636;-85
2023/07/28 00:42:58;;;;;;;6.57;3.05;;;12.80;99.90;;;;;;4975522;28;20186;-84
2023/07/28 00:45:24;;;;;;;4.57;3.17;;;12.80;99.90;;;;;;4958342;28;20186;-84
2023/07/28 00:47:50;;;;;;;3.83;3.28;;;12.80;99.90;;;;;;4955360;29;20179;-85
2023/07/28 00:50:15;;;;;;;5.85;3.90;;;12.80;99.90;;;;;;4972271;28;20597;-85
2023/07/28 00:52:42;;;;;;;5.50;3.85;;;12.80;99.90;;;;;;4958595;28;20163;-85
2023/07/28 00:55:08;;;;;;;5.50;3.25;;;12.80;99.90;;;;;;4957861;28;20191;-86
2023/07/28 00:57:34;;;;;;;4.15;3.53;;;12.80;99.90;;;;;;4958264;28;20203;-85
2023/07/28 01:00:01;;;;;;;7.45;3.67;;;12.80;99.90;;;;;;4973955;28;20191;-85
2023/07/28 01:02:26;;;;;;;6.15;4.20;;;12.80;99.90;;;;;;4974830;28;20536;-86
2023/07/28 01:04:52;;;;;;;7.82;3.83;;;12.70;99.90;;;;;;4957756;28;20186;-86
2023/07/28 01:07:37;;;;;;;5.40;3.47;;;12.70;99.90;;;;;;4957861;28;20201;-85
2023/07/28 01:10:10;;;;;;;6.60;3.83;;;12.70;99.90;;;;;;4973704;28;20309;-85
2023/07/28 01:12:36;;;;;;;5.70;3.90;;;12.70;99.90;;;;;;4975158;28;20178;-85
2023/07/28 01:15:01;;;;;;;4.22;3.35;;;12.70;99.90;;;;;;4974690;28;20648;-85
2023/07/28 01:17:28;;;;;;;5.43;3.97;;;;;;;;;;4974849;28;20213;-85
2023/07/28 01:19:53;;;;;;;6.85;3.75;;;12.70;99.90;;;;;;4974869;28;20187;-86
2023/07/28 01:22:50;;;;;;;4.95;3.70;;;12.70;99.90;;;;;;4975373;28;20541;-85
2023/07/28 01:25:22;;;;;;;5.28;3.65;;;12.60;99.90;;;;;;4975335;28;20174;-85
2023/07/28 01:27:50;;;;;;;6.65;3.40;;;12.60;99.90;;;;;;4975184;28;20178;-85
2023/07/28 01:30:15;;;;;;;5.57;3.78;;;12.60;99.90;;;;;;4975841;28;20175;-85
2023/07/28 01:32:41;;;;;;;4.45;3.08;;;12.60;99.90;;;;;;4958363;28;20174;-85
2023/07/28 01:35:08;;;;;;;5.03;3.53;;;12.60;99.90;;;;;;4957506;28;20190;-86
2023/07/28 01:37:33;;;;;;;4.00;3.20;;;12.60;99.90;;;;;;4975268;28;20210;-86
2023/07/28 01:39:59;;;;;;;5.50;3.03;;;12.60;99.90;;;;;;4957451;28;20519;-85
2023/07/28 01:42:24;;;;;;;6.10;3.47;;;12.60;99.90;;;;;;4957316;28;20186;-84
2023/07/28 01:44:50;;;;;;;4.70;3.40;;;12.50;99.90;;;;;;4974430;28;20188;-86
2023/07/28 01:47:16;;;;;;;4.43;3.10;;;12.60;99.90;;;;;;4957434;28;20175;-86
2023/07/28 01:49:41;;;;;;;4.85;3.20;;;12.50;99.90;;;;;;4975027;28;20698;-86
2023/07/28 01:52:07;;;;;;;6.93;3.30;;;12.50;99.90;;;;;;4954299;28;20231;-86
2023/07/28 01:54:33;;;;;;;4.25;3.10;;;12.50;99.90;;;;;;4951312;29;20194;-85
2023/07/28 01:56:58;;;;;;;8.15;3.42;;;12.60;99.90;;;;;;4958083;29;20194;-86
2023/07/28 01:59:24;;;;;;;3.72;3.22;;;12.70;99.90;;;;;;4958987;28;20242;-85
2023/07/28 02:01:50;;;;;;;7.22;3.40;;;12.70;99.90;;;;;;4952769;29;20277;-86
2023/07/28 02:04:16;;;;;;;3.83;3.45;;;12.80;99.90;;;;;;4958049;29;20270;-86
2023/07/28 02:06:42;;;;;;;4.70;3.33;;;12.80;99.90;;;;;;4952071;29;20222;-85
2023/07/28 02:09:07;;;;;;;4.72;3.67;;;12.80;99.90;;;;;;4957966;29;20321;-85
2023/07/28 02:11:33;;;;;;;6.63;3.20;;;12.80;99.90;;;;;;4959332;29;20179;-86
2023/07/28 02:13:59;;;;;;;6.13;3.25;;;12.90;99.90;;;;;;4938220;29;20190;-86
2023/07/28 02:16:27;;;;;;;5.28;3.83;;;12.80;99.90;;;;;;4959208;28;20219;-85
2023/07/28 02:18:53;;;;;;;4.97;3.40;;;12.70;99.90;;;;;;4937566;29;20310;-86
2023/07/28 02:21:19;;;;;;;6.60;3.65;;;12.80;99.90;;;;;;4957738;29;20206;-86
2023/07/28 02:23:45;;;;;;;5.30;3.58;;;12.90;99.90;;;;;;4952216;29;20238;-86
2023/07/28 02:26:10;;;;;;;5.68;3.55;;;12.90;99.90;;;;;;4958298;28;20172;-86
2023/07/28 02:28:36;;;;;;;5.72;3.47;;;13.00;99.90;;;;;;4958406;29;20183;-86
2023/07/28 02:31:01;;;;;;;4.13;3.42;;;13.00;99.90;;;;;;4953938;29;20254;-86
2023/07/28 02:33:29;;;;;;;6.05;3.60;;;13.00;99.90;;;;;;4933656;29;20273;-86
2023/07/28 02:35:56;;;;;;;7.65;3.97;;;13.00;99.90;;;;;;4958460;28;20656;-86
2023/07/28 02:38:21;;;;;;;7.22;4.07;;;13.00;99.90;;;;;;4956423;29;20218;-85
2023/07/28 02:40:47;;;;;;;7.90;4.07;;;13.00;99.90;;;;;;4952474;29;20691;-86
2023/07/28 02:43:12;;;;;;;9.57;3.78;;;13.00;99.90;;;;;;4958243;28;20232;-86
2023/07/28 02:45:38;;;;;;;7.05;3.83;;;13.00;99.90;;;;;;4958115;29;20537;-86
2023/07/28 02:48:04;;;;;;;9.43;5.03;;;13.10;99.90;;;;;;4954038;29;20530;-86
2023/07/28 02:50:30;;;;;;;7.72;4.05;;;13.20;99.90;;;;;;4935566;28;20194;-85
2023/07/28 02:52:55;;;;;;;6.50;4.13;;;13.20;99.90;;;;;;4960315;28;20194;-85
2023/07/28 02:55:21;;;;;;;8.38;4.38;;;13.20;99.90;;;;;;4959890;28;20588;-86
2023/07/28 02:57:46;;;;;;;6.68;4.38;;;13.20;99.90;;;;;;4956739;29;20234;-87
2023/07/28 03:00:12;;;;;;;9.00;4.75;;;13.20;99.90;;;;;;4958269;28;20190;-86
2023/07/28 03:02:38;;;;;;;9.50;4.82;;;13.30;99.90;;;;;;4960441;28;20568;-85
2023/07/28 03:05:04;;;;;;;7.60;4.35;;;13.30;99.90;;;;;;4976241;28;20181;-86
2023/07/28 03:07:31;;;;;;;11.10;4.72;;;13.30;99.90;;;;;;4960057;28;20612;-86
2023/07/28 03:09:57;;;;;;;6.72;4.35;;;13.30;99.90;;;;;;4957009;29;20185;-86
2023/07/28 03:12:22;;;;;;;9.88;4.50;;;13.30;99.90;;;;;;4959798;28;20681;-86
2023/07/28 03:14:48;;;;;;;11.65;4.65;;;13.40;99.90;;;;;;4956628;29;20175;-86
2023/07/28 03:17:14;;;;;;;8.43;3.95;;;13.50;99.90;;;;;;4942090;28;20543;-87
2023/07/28 03:19:39;;;;;;;5.75;3.72;;;13.60;99.90;;;;;;4977040;28;20186;-86
2023/07/28 03:22:05;;;;;;;8.23;4.00;;;13.60;99.90;;;;;;4957012;28;20187;-86
2023/07/28 03:24:31;;;;;;;6.57;3.50;;;13.80;99.90;;;;;;4940420;29;20719;-86
2023/07/28 03:26:56;;;;;;;5.15;3.08;;;13.90;99.90;;;;;;4972893;28;20189;-86
2023/07/28 03:29:22;;;;;;;5.38;3.00;;;13.90;99.90;;;;;;4958919;28;20215;-86
2023/07/28 03:31:47;;;;;;;4.30;3.10;;;14.10;99.90;;;;;;4956531;29;20188;-86
2023/07/28 03:34:13;;;;;;;6.63;3.45;;;14.10;99.90;;;;;;4974786;28;20289;-86
2023/07/28 03:36:39;;;;;;;3.40;3.10;;;14.10;99.90;;;;;;4959433;28;20267;-86
2023/07/28 03:39:05;;;;;;;4.68;2.97;;;14.20;99.90;;;;;;4976567;28;20679;-86
2023/07/28 03:41:31;;;;;;;4.22;2.83;;;14.10;99.90;;;;;;4975243;28;20190;-86
2023/07/28 03:43:56;;;;;;;5.18;3.22;;;14.20;99.90;;;;;;4965322;28;20201;-88
2023/07/28 03:46:22;;;;;;;5.93;2.95;;;14.30;99.90;;;;;;4935566;28;20191;-90
2023/07/28 03:48:48;;;;;;;6.47;3.03;;;14.30;99.90;;;;;;4975632;28;20197;-87
2023/07/28 03:51:14;;;;;;;6.53;2.90;;;14.30;99.90;;;;;;4956568;28;20289;-88
2023/07/28 03:53:39;;;;;;;7.20;3.28;;;14.30;99.90;;;;;;4968841;28;20187;-87
2023/07/28 03:56:05;;;;;;;5.60;3.58;;;14.30;99.90;;;;;;4955377;28;20187;-89
2023/07/28 03:58:31;;;;;;;7.53;3.92;;;14.30;99.90;;;;;;4957777;28;20217;-90
2023/07/28 04:00:56;;;;;;;9.73;4.60;;;14.30;99.90;;;;;;4979634;28;20277;-90
2023/07/28 04:03:22;;;;;;;6.53;3.83;;;14.30;99.90;;;;;;4972948;28;20217;-90
2023/07/28 04:05:48;;;;;;;4.68;3.50;;;14.30;99.90;;;;;;4967433;28;20195;-90
2023/07/28 04:08:13;;;;;;;6.53;3.90;;;14.40;99.90;;;;;;4968175;28;20201;-90
2023/07/28 04:10:39;;;;;;;4.70;3.05;;;14.30;99.90;;;;;;4943095;28;20205;-91
2023/07/28 04:13:05;;;;;;;6.18;3.15;;;14.30;99.90;;;;;;4975483;28;20193;-91
2023/07/28 04:15:31;;;;;;;4.72;3.13;;;;;;;;;;4937501;28;20214;-91
2023/07/28 04:17:56;;;;;;;3.40;2.80;;;14.20;99.90;;;;;;4975744;28;20670;-91
2023/07/28 04:20:22;;;;;;;5.03;3.15;;;14.30;99.90;;;;;;4941772;28;20345;-90
2023/07/28 04:22:48;;;;;;;4.50;2.42;;;;;;;;;;4951869;29;20241;-91
2023/07/28 04:25:16;;;;;;;4.05;2.78;;;14.30;99.90;;;;;;4939253;29;20214;-90
2023/07/28 04:27:42;;;;;;;4.00;2.42;;;14.40;99.90;;;;;;4974846;28;20187;-89
2023/07/28 04:30:08;;;;;;;5.68;2.35;;;14.50;99.90;;;;;;4956354;28;20559;-91
2023/07/28 04:32:33;;;;;;;7.13;2.65;;;14.60;99.90;;;;;;4938756;28;20543;-87
2023/07/28 04:34:59;;;;;;;2.88;2.47;;;14.60;99.90;;;;;;4979751;28;20260;-88
2023/07/28 04:37:25;;;;;;;2.80;2.42;;;14.70;99.90;;;;;;4972586;28;20221;-91
2023/07/28 04:39:50;;;;;;;5.47;2.38;;;14.70;99.90;;;;;;4937980;28;20566;-88
2023/07/28 04:42:16;;;;;;;2.63;2.15;;;14.80;99.90;;;;;;4946917;28;20664;-88
2023/07/28 04:44:42;;;;;;;3.53;2.38;;;14.80;99.90;;;;;;4939220;29;20207;-89
2023/07/28 04:47:08;;;;;;;2.97;2.38;;;14.80;99.90;;;;;;4950404;28;20614;-87
2023/07/28 04:49:33;;;;;;;5.63;2.58;;;14.80;99.90;;;;;;4979767;28;20273;-89
2023/07/28 04:51:59;;;;;;;6.00;2.25;;;14.90;99.90;;;;;;4947362;28;20333;-88
2023/07/28 04:54:25;;;;;;;9.15;2.30;;;14.90;99.90;;;;;;4979274;28;20660;-89
2023/07/28 04:56:53;;;;;;;4.90;2.55;;;14.90;99.90;;;;;;4972170;28;20191;-88
2023/07/28 04:59:19;;;;;;;6.55;2.33;;;15.00;99.90;;;;;;4960542;28;20210;-87
2023/07/28 05:01:44;;;;;;;3.40;2.33;;;15.00;99.90;;;;;;4958024;28;20675;-91
2023/07/28 05:04:10;;;;;;;4.97;2.78;;;15.10;99.90;;;;;;4959893;28;20179;-88
2023/07/28 05:06:35;;;;;;;2.47;2.20;;;15.10;99.90;;;;;;4995398;28;20178;-88
2023/07/28 05:09:01;;;;;;;4.55;2.25;;;15.10;99.90;;;;;;4976286;28;20182;-87
2023/07/28 05:11:27;;;;;;;3.60;2.13;;;;;;;;;;4974175;28;20551;-87
2023/07/28 05:13:53;;;;;;;6.03;3.38;;;15.10;99.90;;;;;;4958091;28;20183;-87
2023/07/28 05:16:19;;;;;;;3.83;2.42;;;15.20;99.90;;;;;;4977096;28;20193;-88
2023/07/28 05:18:44;;;;;;;2.88;1.98;;;15.20;99.90;;;;;;4994397;28;20205;-87
2023/07/28 05:21:10;;;;;;;6.20;2.70;;;15.20;99.90;;;;;;4975348;28;20614;-89
2023/07/28 05:23:35;;;;;;;2.80;2.17;;;15.30;99.90;;;;;;4957926;28;20179;-89
2023/07/28 05:26:01;;;;;;;3.00;2.38;;;15.30;99.90;;;;;;4990295;28;20186;-88
2023/07/28 05:28:27;;;;;;;4.95;2.45;;;15.40;99.90;;;;;;4992820;28;20186;-87
2023/07/28 05:30:52;;;;;;;3.47;2.40;;;15.40;99.90;;;;;;4961492;28;20186;-88
2023/07/28 05:33:18;;;;;;;2.55;2.25;;;15.50;99.90;;;;;;4978968;28;20179;-87
2023/07/28 05:35:44;;;;;;;6.85;2.50;;;15.60;99.90;;;;;;4959214;28;20210;-88
2023/07/28 05:38:09;;;;;;;3.65;2.13;;;15.70;99.90;;;;;;4991930;28;20293;-88
2023/07/28 05:40:35;;;;;;;4.72;2.58;;;15.90;99.90;;;;;;4979402;28;20272;-88
2023/07/28 05:43:00;;;;;;;3.33;2.40;;;16.00;99.90;;;;;;4964645;28;20190;-87
2023/07/28 05:45:26;;;;;;;4.78;2.17;;;16.00;99.90;;;;;;4980628;28;20218;-89
2023/07/28 05:47:52;;;;;;;2.30;1.98;;;16.10;99.90;;;;;;5012020;28;20177;-88
2023/07/28 05:50:25;;;;;;;4.20;2.20;;;16.20;99.90;;;;;;5000260;28;20166;-86
2023/07/28 05:52:50;;;;;;;3.08;2.00;;;16.20;99.90;;;;;;5017496;28;20277;-86
2023/07/28 05:55:16;;;;;;;3.30;1.88;;;16.20;99.90;;;;;;5018162;28;20166;-87
2023/07/28 05:57:42;;;;;;;2.38;1.92;;;16.20;99.90;;;;;;4996499;28;20222;-88
2023/07/28 06:00:11;;;;;;;1.85;1.70;;;16.30;99.90;;;;;;4980220;28;20191;-87
2023/07/28 06:02:37;;;;;;;3.22;1.88;;;16.20;99.90;;;;;;4990644;28;20159;-87
2023/07/28 06:05:03;;;;;;;2.72;2.05;;;16.20;99.90;;;;;;4981941;28;20204;-87
2023/07/28 06:07:28;;;;;;;3.72;2.20;;;16.20;99.90;;;;;;5017964;28;20169;-93
2023/07/28 06:09:54;;;;;;;2.78;2.45;;;16.10;99.90;;;;;;4998102;28;20704;-86
2023/07/28 06:12:20;;;;;;;2.50;1.90;;;16.00;99.90;;;;;;4996567;28;20559;-87
2023/07/28 06:14:45;;;;;;;4.10;1.98;;;16.00;99.90;;;;;;4960708;28;20241;-86
2023/07/28 06:17:11;;;;;;;2.72;2.08;;;15.90;99.90;;;;;;4994135;28;20180;-86
2023/07/28 06:19:36;;;;;;;6.68;2.38;;;15.90;99.90;;;;;;4960690;28;20209;-87
2023/07/28 06:22:02;;;;;;;2.70;1.85;;;15.90;99.90;;;;;;4960450;28;20659;-88
2023/07/28 06:24:28;;;;;;;3.28;2.15;;;16.60;99.90;;;;;;4996278;28;20186;-87
2023/07/28 06:26:53;;;;;;;4.13;2.35;;;16.00;99.90;;;;;;4959015;28;20186;-87
2023/07/28 06:29:19;;;;;;;8.02;2.38;;;16.00;99.90;;;;;;4976965;28;20191;-87
2023/07/28 06:31:45;;;;;;;4.03;2.00;;;16.00;99.90;;;;;;4957708;28;20183;-88
2023/07/28 06:34:11;;;;;;;3.97;2.30;;;16.00;99.90;;;;;;4991607;28;20176;-86
2023/07/28 06:36:36;;;;;;;2.97;1.85;;;16.10;99.90;;;;;;4989160;28;20182;-89
2023/07/28 06:39:02;;;;;;;2.63;1.95;;;16.10;99.90;;;;;;4956966;28;20640;-86
2023/07/28 06:41:28;;;;;;;2.85;2.20;;;16.20;99.90;;;;;;4960267;28;20660;-92
2023/07/28 06:43:53;;;;;;;4.03;2.13;;;16.20;99.90;;;;;;4977044;28;20186;-86
2023/07/28 06:46:19;;;;;;;2.05;1.85;;;16.30;99.90;;;;;;4996727;28;20217;-88
2023/07/28 06:48:44;;;;;;;3.47;2.15;;;16.40;99.90;;;;;;4976950;28;20632;-88
2023/07/28 06:51:10;;;;;;;3.65;2.08;;;16.40;99.90;;;;;;4977866;28;20239;-88
2023/07/28 06:53:36;;;;;;;4.80;2.42;;;16.50;99.90;;;;;;4960500;28;20175;-89
2023/07/28 06:56:01;;;;;;;3.05;1.60;;;16.60;99.90;;;;;;4961151;28;20225;-88
2023/07/28 06:58:27;;;;;;;2.85;1.88;;;16.70;99.90;;;;;;4960309;28;20210;-88
2023/07/28 07:00:55;;;;;;;5.65;1.67;;;16.70;99.90;;;;;;4976652;28;20198;-88
2023/07/28 07:03:21;;;;;;;1.83;1.40;;;16.50;99.90;;;;;;4996480;28;20174;-89
2023/07/28 07:05:47;;;;;;;2.05;1.75;;;16.30;99.90;;;;;;4992822;28;20548;-89
2023/07/28 07:08:12;;;;;;;3.40;1.60;;;16.20;99.90;;;;;;4993954;28;20186;-91
2023/07/28 07:10:38;;;;;;;2.58;1.67;;;16.10;99.90;;;;;;4992752;28;20606;-90
2023/07/28 07:13:04;;;;;;;2.20;1.38;;;15.90;99.90;;;;;;4976691;28;20249;-89
2023/07/28 07:15:29;;;;;;;2.08;1.45;;;16.00;99.90;;;;;;4960593;28;20186;-88
2023/07/28 07:17:56;;;;;;;2.75;1.70;;;;;;;;;;4944150;28;20298;-89
2023/07/28 07:20:21;;;;;;;3.38;2.03;;;16.10;99.90;;;;;;4996630;28;20269;-90
2023/07/28 07:22:47;;;;;;;2.50;1.73;;;16.10;99.90;;;;;;4975980;28;20679;-88
2023/07/28 07:25:13;;;;;;;14.30;2.42;;;16.20;99.90;;;;;;4993643;28;20701;-88
2023/07/28 07:27:39;;;;;;;3.60;1.63;;;16.20;99.90;;;;;;4992549;28;20620;-89
2023/07/28 07:30:05;;;;;;;2.03;1.85;;;16.30;99.90;;;;;;4944581;28;20189;-89
2023/07/28 07:32:33;;;;;;;3.55;2.25;;;16.40;99.90;;;;;;4976052;28;20661;-88
2023/07/28 07:34:59;;;;;;;3.35;2.05;;;16.50;99.90;;;;;;4991835;28;20194;-87
2023/07/28 07:37:24;;;;;;;2.78;2.10;;;16.60;99.90;;;;;;4979237;28;20178;-87
2023/07/28 07:39:50;;;;;;;2.17;1.80;;;16.70;99.90;;;;;;4943705;28;20190;-88
2023/07/28 07:42:16;;;;;;;3.03;2.03;;;16.80;99.90;;;;;;4961512;28;20270;-88
2023/07/28 07:44:41;;;;;;;1.52;1.42;;;17.00;99.90;;;;;;4975658;28;20189;-88
2023/07/28 07:47:14;;;;;;;2.58;1.52;;;17.00;99.90;;;;;;4983314;28;20175;-88
2023/07/28 07:49:40;;;;;;;2.67;1.63;;;17.00;99.90;;;;;;5001531;28;20186;-89
2023/07/28 07:52:10;;;;;;;5.43;1.88;;;17.10;99.90;;;;;;4997774;28;20254;-88
2023/07/28 07:54:35;;;;;;;4.40;2.25;;;17.10;99.90;;;;;;4981102;28;20195;-88
2023/07/28 07:57:02;;;;;;;15.95;1.98;;;17.10;99.90;;;;;;4962992;28;20187;-88
2023/07/28 07:59:30;;;;;;;2.13;1.80;;;16.50;99.90;;;;;;4962248;28;20225;-89
2023/07/28 08:01:56;;;;;;;2.13;1.75;;;17.20;99.90;;;;;;4993012;28;20236;-90
2023/07/28 08:04:22;;;;;;;1.65;1.50;;;17.30;99.90;;;;;;4963042;28;20196;-89
2023/07/28 08:06:47;;;;;;;2.55;1.63;;;17.30;99.90;;;;;;4998593;28;20693;-88
2023/07/28 08:09:13;;;;;;;3.10;1.92;;;;;;;;;;4962036;28;20194;-90
2023/07/28 08:11:40;;;;;;;1.45;1.35;;;17.40;99.90;;;;;;4996602;28;20225;-88
2023/07/28 08:14:06;;;;;;;2.53;1.73;;;17.30;99.90;;;;;;4960589;28;20257;-89
2023/07/28 08:16:31;;;;;;;1.77;1.55;;;17.40;99.90;;;;;;4959433;28;20269;-89
2023/07/28 08:18:57;;;;;;;2.70;1.60;;;17.30;99.90;;;;;;4997263;28;20217;-88
2023/07/28 08:21:23;;;;;;;3.97;1.60;;;17.20;99.90;;;;;;4993575;28;20197;-89
2023/07/28 08:23:49;;;;;;;3.65;1.85;;;17.20;99.90;;;;;;4959927;28;20191;-89
2023/07/28 08:26:14;;;;;;;4.63;2.22;;;17.20;99.90;;;;;;4995184;28;20178;-87
2023/07/28 08:28:40;;;;;;;3.10;1.70;;;17.20;99.90;;;;;;4960377;28;20624;-94
2023/07/28 08:31:05;;;;;;;2.00;1.65;;;17.10;99.90;;;;;;4974020;28;20178;-89
2023/07/28 08:33:31;;;;;;;2.67;1.67;;;17.10;99.90;;;;;;4997686;28;20210;-88
2023/07/28 08:35:57;;;;;;;3.70;1.75;;;17.00;99.90;;;;;;4960509;28;20635;-88
2023/07/28 08:38:26;;;;;;;4.80;2.08;;;17.00;99.90;;;;;;4978948;28;20261;-90
2023/07/28 08:40:52;;;;;;;1.95;1.63;;;19.00;99.90;;;;;;4959964;28;20269;-88
2023/07/28 08:43:18;;;;;;;1.85;1.70;;;17.10;99.90;;;;;;4992779;28;20206;-87
2023/07/28 08:45:43;;;;;;;2.50;1.80;;;17.20;99.90;;;;;;4975376;28;20187;-89
2023/07/28 08:48:09;;;;;;;2.88;1.70;;;17.20;99.90;;;;;;4976219;28;20185;-87
2023/07/28 08:50:35;;;;;;;5.72;2.30;;;17.30;99.90;;;;;;4994820;28;20182;-91
2023/07/28 08:53:01;;;;;;;2.05;1.58;;;17.30;99.90;;;;;;4995296;28;20233;-88
2023/07/28 08:55:27;;;;;;;2.95;1.73;;;17.40;99.90;;;;;;4996502;28;20702;-89
2023/07/28 08:57:53;;;;;;;3.40;1.98;;;17.40;99.90;;;;;;4996271;28;20249;-89
2023/07/28 09:00:19;;;;;;;2.25;2.03;;;17.40;99.90;;;;;;4978601;28;20234;-89
2023/07/28 09:02:50;;;;;;;4.47;1.92;;;17.60;99.90;;;;;;4974618;28;20632;-89
2023/07/28 09:05:20;;;;;;;5.38;1.58;;;17.70;99.90;;;;;;4977975;28;20624;-89
2023/07/28 09:07:46;;;;;;;3.28;2.08;;;17.70;99.90;;;;;;4978680;28;20187;-90
2023/07/28 09:10:12;;;;;;;2.05;1.60;;;17.80;99.90;;;;;;4978531;28;20177;-88
2023/07/28 09:12:45;;;;;;;2.70;1.75;;;17.80;99.90;;;;;;4996154;28;20177;-89
2023/07/28 09:15:11;;;;;;;2.40;1.75;;;17.90;99.90;;;;;;4992873;28;20186;-87
2023/07/28 09:17:45;;;;;;;6.47;2.25;;;18.00;99.90;;;;;;4994061;28;20243;-88
2023/07/28 09:20:19;;;;;;;4.72;2.67;;;18.00;99.90;;;;;;4995942;28;20170;-90
2023/07/28 09:22:47;;;;;;;4.70;2.33;;;18.00;99.90;;;;;;4996740;28;20215;-89
2023/07/28 09:25:15;;;;;;;2.72;1.98;;;18.10;99.90;;;;;;4960658;28;20225;-89
2023/07/28 09:27:48;;;;;;;6.63;2.13;;;18.10;99.90;;;;;;4958500;28;20182;-88
2023/07/28 09:30:16;;;;;;;3.60;1.88;;;18.20;99.90;;;;;;4976444;28;20182;-88
2023/07/28 09:32:48;;;;;;;2.58;1.60;;;18.40;99.90;;;;;;4960193;28;20250;-88
2023/07/28 09:35:14;;;;;;;2.63;1.60;;;18.50;99.90;;;;;;4998975;28;20218;-89
2023/07/28 09:37:47;;;;;;;2.38;1.50;;;18.50;99.90;;;;;;4980059;28;20186;-90
2023/07/28 09:40:15;;;;;;;3.97;1.98;;;18.60;99.90;;;;;;4960773;28;20225;-88
2023/07/28 09:42:44;;;;;;;3.13;2.08;;;18.60;99.90;;;;;;4997113;28;20177;-89
2023/07/28 09:45:10;;;;;;;4.40;3.17;;;18.70;99.90;;;;;;4996364;28;20273;-90
2023/07/28 09:47:38;;;;;;;2.88;1.88;;;18.60;99.90;;;;;;4991815;28;20197;-89
2023/07/28 09:50:11;;;;;;;3.33;1.80;;;18.60;99.90;;;;;;4974860;28;20179;-90
2023/07/28 09:52:45;;;;;;;4.07;1.90;;;18.70;99.90;;;;;;4975085;28;20325;-91
2023/07/28 09:55:13;;;;;;;3.70;1.75;;;18.70;99.90;;;;;;4993336;28;20218;-91
2023/07/28 09:57:51;;;;;;;2.80;2.28;;;18.70;99.90;;;;;;4975209;28;20659;-90
2023/07/28 10:00:18;;;;;;;2.90;1.90;;;18.70;99.90;;;;;;4977855;28;20650;-90
2023/07/28 10:02:45;;;;;;;2.30;1.83;;;18.60;99.90;;;;;;4995947;28;20191;-93
2023/07/28 10:05:14;;;;;;;3.03;2.03;;;18.60;99.90;;;;;;4979087;28;20266;-95
2023/07/28 10:07:43;;;;;;;2.63;1.60;;;18.20;99.90;;;;;;4982594;28;20183;-94
2023/07/28 10:10:17;;;;;;;3.75;1.63;;;17.90;99.90;;;;;;4988202;28;20237;-93
2023/07/28 10:12:47;;;;;;;1.77;1.63;;;16.10;99.90;;;;;;4964989;28;20191;-93
2023/07/28 10:15:15;;;;;;;2.38;1.83;;;17.70;99.90;;;;;;4974321;28;20186;-92
2023/07/28 10:17:47;;;;;;;5.15;1.85;;;17.60;99.90;;;;;;4995021;28;20707;-94
2023/07/28 10:20:40;;;;;;;11.38;2.78;;;17.50;99.90;;;;;;4992226;28;20197;-92
2023/07/28 10:23:28;;;;;;;3.47;2.13;;;17.70;99.90;;;;;;4981198;28;20193;-93
2023/07/28 10:26:00;;;;;;;2.95;2.00;;;17.30;99.90;;;;;;5019247;28;20186;-91
2023/07/28 10:28:36;;;;;;;3.10;1.90;;;17.00;99.90;;;;;;5003068;28;20201;-96
2023/07/28 10:31:06;;;;;;;3.58;2.33;;;17.40;99.90;;;;;;5195319;23;20226;-92
2023/07/28 10:36:42;;;;;;;2.75;1.98;;;17.20;99.90;;;;;;4998925;28;20238;-96
2023/07/28 10:42:08;;;;;;;3.45;2.63;;;17.50;99.90;;;;;;5048920;23;20218;-96
2023/07/28 10:49:48;;;;;;;2.70;2.40;;;;;;;;;;5016502;28;20221;-95
2023/07/28 10:52:16;;;;;;;4.70;2.20;;;17.60;99.90;;;;;;4993524;28;20638;-94
2023/07/28 10:54:42;;;;;;;4.35;2.30;;;17.70;99.90;;;;;;4992357;28;20212;-96
2023/07/28 10:57:11;;;;;;;4.28;2.75;;;17.70;99.90;;;;;;4990139;28;20188;-96
2023/07/28 10:59:37;;;;;;;6.00;2.38;;;;;;;;;;4989464;28;20217;-95
2023/07/28 11:02:03;;;;;;;5.65;3.13;;;17.30;99.90;;;;;;4985524;28;20189;-94
2023/07/28 11:04:29;;;;;;;4.78;3.05;;;;;;;;;;4988652;28;20182;-95
2023/07/28 11:06:58;;;;;;;4.40;2.63;;;18.20;99.90;;;;;;4988105;28;20226;-96
2023/07/28 11:09:32;;;;;;;2.60;2.15;;;18.30;99.90;;;;;;4972397;28;20185;-96
2023/07/28 11:12:01;;;;;;;4.93;2.38;;;18.30;99.90;;;;;;4970192;28;20192;-91
2023/07/28 11:14:26;;;;;;;4.05;2.50;;;18.30;99.90;;;;;;4986147;28;20276;-93
2023/07/28 11:16:55;;;;;;;3.67;2.45;;;18.90;99.90;;;;;;4986937;28;20205;-93
2023/07/28 11:19:26;;;;;;;3.70;2.03;;;18.10;99.90;;;;;;4971714;28;20218;-96
2023/07/28 11:21:53;;;;;;;2.90;2.30;;;18.40;99.90;;;;;;4989518;28;20186;-93
2023/07/28 11:24:22;;;;;;;6.32;3.72;;;18.40;99.90;;;;;;4983342;28;20272;-93
2023/07/28 11:26:49;;;;;;;2.80;1.85;;;16.20;99.90;;;;;;4981451;28;20627;-91
2023/07/28 11:29:16;;;;;;;2.65;2.20;;;18.20;99.90;;;;;;4981355;28;20189;-93
2023/07/28 11:31:42;;;;;;;3.30;2.30;;;19.60;99.90;;;;;;4968490;28;20182;-91
2023/07/28 11:34:15;;;;;;;3.03;2.10;;;18.30;99.90;;;;;;4965818;28;20197;-92
2023/07/28 11:36:42;;;;;;;2.53;2.20;;;18.50;99.90;;;;;;4980546;28;20181;-90
2023/07/28 11:39:10;;;;;;;3.15;2.00;;;18.30;99.90;;;;;;4965628;28;20301;-91
2023/07/28 11:41:36;;;;;;;2.28;1.85;;;18.40;99.90;;;;;;4979986;28;20186;-92
2023/07/28 11:44:02;;;;;;;5.35;2.08;;;18.50;99.90;;;;;;4980672;28;20174;-91
2023/07/28 11:46:42;;;;;;;4.00;2.30;;;18.20;99.90;;;;;;4966232;28;20193;-91
2023/07/28 11:49:12;;;;;;;2.55;1.83;;;17.30;99.90;;;;;;4981417;28;20236;-92
2023/07/28 11:51:43;;;;;;;2.33;1.95;;;18.40;99.90;;;;;;4984148;28;20194;-93
2023/07/28 11:54:20;;;;;;;2.58;1.50;;;18.70;99.90;;;;;;4974289;28;20186;-94
2023/07/28 11:56:54;;;;;;;2.25;1.70;;;18.50;99.90;;;;;;4986335;28;20188;-94
2023/07/28 11:59:20;;;;;;;2.35;1.90;;;18.90;99.90;;;;;;4987047;28;20214;-91
2023/07/28 12:02:17;;;;;;;2.63;1.60;;;18.40;99.90;;;;;;4986976;28;20186;-96
2023/07/28 12:04:49;;;;;;;3.17;1.90;;;;;;;;;;4992796;28;20630;-95
2023/07/28 12:07:19;;;;;;;2.20;1.92;;;18.20;99.90;;;;;;4985287;28;20192;-94
2023/07/28 12:09:51;;;;;;;4.57;2.00;;;18.10;99.90;;;;;;4990448;28;20178;-95
2023/07/28 12:12:20;;;;;;;5.93;1.70;;;18.20;99.90;;;;;;4985221;28;20550;-89
2023/07/28 12:14:51;;;;;;;2.67;1.92;;;18.10;99.90;;;;;;4980981;28;20631;-90
2023/07/28 12:17:19;;;;;;;3.28;2.22;;;18.30;99.90;;;;;;4982606;28;20178;-89
2023/07/28 12:20:10;;;;;;;5.82;2.22;;;18.20;99.90;;;;;;4984003;28;20590;-90
2023/07/28 12:22:37;;;;;;;3.40;2.53;;;18.00;99.90;;;;;;5004281;28;20189;-89
2023/07/28 12:25:06;;;;;;;2.55;2.10;;;17.90;99.90;;;;;;4986113;28;20194;-90
2023/07/28 12:27:34;;;;;;;2.80;2.22;;;18.00;99.90;;;;;;4986447;28;20232;-89
2023/07/28 12:30:03;;;;;;;3.28;2.17;;;17.80;99.90;;;;;;4991602;28;20193;-91
2023/07/28 12:32:29;;;;;;;3.50;1.95;;;;;;;;;;4983558;28;20189;-90
2023/07/28 12:34:57;;;;;;;2.70;2.35;;;17.60;99.90;;;;;;4999180;28;20205;-90
2023/07/28 12:37:23;;;;;;;3.55;2.10;;;17.60;99.90;;;;;;4998233;28;20182;-90
2023/07/28 12:39:49;;;;;;;6.22;2.45;;;;;;;;;;4983113;28;20208;-88
2023/07/28 12:42:17;;;;;;;3.00;2.13;;;17.50;99.90;;;;;;5018734;28;20177;-93
2023/07/28 12:44:43;;;;;;;3.75;2.58;;;;;;;;;;5002694;28;20166;-90
2023/07/28 12:47:09;;;;;;;4.20;2.58;;;17.80;99.90;;;;;;5002880;28;20188;-89
2023/07/28 12:49:35;;;;;;;2.90;2.13;;;;;;;;;;5019267;28;20241;-88
2023/07/28 12:52:06;;;;;;;4.25;2.40;;;17.50;99.90;;;;;;5002387;28;20197;-91
2023/07/28 12:54:33;;;;;;;3.00;2.17;;;17.50;99.90;;;;;;4997128;28;20197;-91
2023/07/28 12:56:59;;;;;;;3.65;2.08;;;18.10;99.90;;;;;;5000300;28;20185;-88
2023/07/28 12:59:25;;;;;;;4.03;2.30;;;;;;;;;;4986332;28;20209;-93
2023/07/28 13:01:51;;;;;;;2.63;2.42;;;17.50;99.90;;;;;;5002614;28;20181;-88